首页
METAR-TAF:

METAR-TAF

机场 :

Stornoway, 苏格兰

纬度: 58-13N, 经度: 006-19W, 海拔: 9米

当前天气观测

该预报发布于17分钟前的13:50 UTC
风速19节,风向西北
温度 7°C
湿度 70%
气压 1007 hPa
能见度10公里或以上
少量云层高于2000英尺, 积雨云.
附近有阵雨

METAR: EGPO 231350Z 32019KT 9999 VCSH FEW020CB 07/02 Q1007

时间: 14:07 (14:07 UTC)

预报

该预报发布于3小时和12分钟前的10:55 UTC
预报有效从23日的 12点(UTC)到 23日的 21点(UTC)
风速18节,风向西转西北,有时为30节阵风
能见度10公里或以上
少量云层高于1400英尺
散云层高于2000英尺
短暂存在
从 23日的 12点(UTC)到 23日的 15点(UTC)
风速25节,风向西转西北,有时为40节阵风
能見度: 6000
多云层高于1200英尺, 积雨云.
阵雨, 阵雨, 小冰雹或雪球
成为
从 23日的 16点(UTC)到 23日的 19点(UTC)
风速14节,风向西转西北

TAF: EGPO 231055Z 2312/2321 29018G30KT 9999 FEW014 SCT020 TEMPO 2312/2315 30025G40KT 6000 SHRA SHRAGS BKN012CB BECMG 2316/2319 29014KT

超过4000个机场的气象观测和天气预报(METAR&TAF报告)。

可查询的气象台以黄色和红色小点在地图上表示。

将鼠标移到小点上方,可查看气象台名称。

然后点击查看天气观测和预报。

如需切换地图:点击带黑十字的绿色按钮放大地图;点击带横线的绿色按钮缩小地图;或者点击绿色箭头查看邻近地区的地图。


METAR-TAF: